Time;durP1;ratioP1;P1;durP2;ratioP2;P2;SDS_P1;SDS_P2;PMS_P1;PMS_P2;Temp;Humidity;BMP_temperature;BMP_pressure;BME280_temperature;BME280_humidity;BME280_pressure;Samples;Min_cycle;Max_cycle;Signal;HPM_P1;HPM_P2
2021/07/01 00:00:19;;;;;;;0.33;0.33;;;14.10;99.90;13.40;96546.00;;;;5106888;28;20199;-61
2021/07/01 00:03:07;;;;;;;0.40;0.40;;;14.00;99.90;13.30;96536.00;;;;5106632;28;20199;-60
2021/07/01 00:05:57;;;;;;;1.27;0.60;;;13.90;99.90;13.20;96538.00;;;;5105520;28;20194;-60
2021/07/01 00:08:46;;;;;;;0.87;0.37;;;13.90;99.90;13.20;96533.00;;;;5104701;28;20221;-62
2021/07/01 00:11:36;;;;;;;4.30;0.60;;;13.80;99.90;13.30;96542.00;;;;5105094;28;20223;-63
2021/07/01 00:14:25;;;;;;;0.30;0.30;;;13.70;99.90;13.30;96541.00;;;;5105656;28;20204;-61
2021/07/01 00:17:14;;;;;;;0.30;0.30;;;13.70;99.90;13.10;96539.00;;;;5106643;28;20202;-62
2021/07/01 00:20:05;;;;;;;0.57;0.57;;;13.60;99.90;13.10;96528.00;;;;5088906;28;20225;-63
2021/07/01 00:22:54;;;;;;;0.40;0.40;;;13.60;99.90;13.00;96527.00;;;;5097725;28;20226;-63
2021/07/01 00:25:45;;;;;;;0.40;0.40;;;13.50;99.90;13.00;96526.00;;;;5085508;28;20692;-62
2021/07/01 00:28:35;;;;;;;0.50;0.50;;;13.50;99.90;12.90;96529.00;;;;5065568;28;20238;-62
2021/07/01 00:31:25;;;;;;;0.30;0.30;;;13.40;99.90;12.90;96524.00;;;;5084518;28;20227;-62
2021/07/01 00:34:13;;;;;;;0.90;0.37;;;13.40;99.90;12.40;96530.00;;;;5083926;28;20210;-64
2021/07/01 00:37:02;;;;;;;0.87;0.30;;;13.20;99.90;12.40;96535.00;;;;5074134;28;20207;-61
2021/07/01 00:39:52;;;;;;;0.53;0.37;;;13.10;99.90;12.30;96528.00;;;;5080266;28;20199;-60
2021/07/01 00:42:41;;;;;;;0.70;0.40;;;13.00;99.90;12.40;96522.00;;;;5092755;28;20218;-61
2021/07/01 00:45:31;;;;;;;0.47;0.47;;;12.90;99.90;12.30;96530.00;;;;5075357;28;20688;-62
2021/07/01 00:48:21;;;;;;;0.53;0.47;;;12.90;99.90;12.20;96525.00;;;;5085539;28;20227;-62
2021/07/01 00:51:10;;;;;;;0.73;0.67;;;12.90;99.90;12.30;96517.00;;;;5086681;28;20230;-60
2021/07/01 00:53:59;;;;;;;0.40;0.40;;;12.80;99.90;12.20;96516.00;;;;5074500;28;20345;-62
2021/07/01 00:56:48;;;;;;;0.60;0.60;;;12.80;99.90;12.10;96526.00;;;;5083988;28;20199;-61
2021/07/01 00:59:38;;;;;;;0.40;0.40;;;12.70;99.90;12.10;96521.00;;;;5081519;28;20209;-61
2021/07/01 01:02:28;;;;;;;1.97;0.70;;;12.70;99.90;12.10;96516.00;;;;5083943;28;20213;-61
2021/07/01 01:05:18;;;;;;;1.23;0.60;;;12.60;99.90;12.10;96516.00;;;;5064873;28;20207;-62
2021/07/01 01:08:07;;;;;;;0.73;0.33;;;12.60;99.90;12.00;96512.00;;;;5078859;28;20596;-62
2021/07/01 01:10:56;;;;;;;1.27;0.40;;;12.60;99.90;11.60;96518.00;;;;5080279;28;20207;-61
2021/07/01 01:13:47;;;;;;;4.80;0.63;;;12.50;99.90;11.50;96507.00;;;;5083018;28;20248;-62
2021/07/01 01:16:36;;;;;;;0.50;0.50;;;12.30;99.90;11.40;96495.00;;;;5084566;28;20210;-63
2021/07/01 01:19:26;;;;;;;0.30;0.30;;;12.20;99.90;11.40;96510.00;;;;5081137;28;20271;-61
2021/07/01 01:22:16;;;;;;;0.40;0.40;;;12.10;99.90;11.20;96511.00;;;;5085408;28;20706;-63
2021/07/01 01:25:07;;;;;;;3.30;0.57;;;12.00;99.90;11.30;96512.00;;;;5085002;28;20682;-63
2021/07/01 01:27:56;;;;;;;0.70;0.57;;;11.90;99.90;11.40;96499.00;;;;5084792;28;20211;-63
2021/07/01 01:30:45;;;;;;;0.40;0.40;;;11.90;99.90;11.60;96508.00;;;;5081820;28;20323;-63
2021/07/01 01:33:34;;;;;;;0.40;0.40;;;11.90;99.90;11.70;96513.00;;;;5077845;28;20210;-63
2021/07/01 01:36:23;;;;;;;0.80;0.33;;;12.00;99.90;11.60;96515.00;;;;5083737;28;20199;-63
2021/07/01 01:39:14;;;;;;;0.43;0.43;;;12.00;99.90;11.50;96506.00;;;;5084043;28;20204;-63
2021/07/01 01:42:03;;;;;;;2.27;0.50;;;12.10;99.90;11.30;96510.00;;;;5076174;28;20233;-63
2021/07/01 01:44:52;;;;;;;0.47;0.47;;;12.00;99.90;11.40;96507.00;;;;5083516;28;20219;-63
2021/07/01 01:47:47;;;;;;;1.70;0.63;;;11.90;99.90;11.50;96516.00;;;;5084346;28;20203;-61
2021/07/01 01:50:36;;;;;;;1.57;0.30;;;11.90;99.90;11.50;96500.00;;;;5093905;28;20203;-63
2021/07/01 01:53:26;;;;;;;0.50;0.43;;;11.90;99.90;11.60;96503.00;;;;5087163;28;20211;-63
2021/07/01 01:56:20;;;;;;;0.40;0.40;;;12.00;99.90;11.50;96498.00;;;;5088483;28;20290;-61
2021/07/01 01:59:09;;;;;;;0.33;0.30;;;11.90;99.90;11.40;96499.00;;;;5088579;28;20581;-63
2021/07/01 02:01:58;;;;;;;1.77;0.70;;;11.90;99.90;11.50;96505.00;;;;5088641;28;20230;-63
2021/07/01 02:04:47;;;;;;;7.00;0.60;;;11.90;99.90;11.40;96505.00;;;;5087778;28;20958;-63
2021/07/01 02:07:36;;;;;;;2.23;0.47;;;11.90;99.90;11.40;96498.00;;;;5087535;28;20215;-63
2021/07/01 02:10:27;;;;;;;2.20;0.70;;;11.90;99.90;11.40;96501.00;;;;5088038;28;20223;-63
2021/07/01 02:13:17;;;;;;;0.37;0.37;;;11.80;99.90;11.20;96511.00;;;;5087615;28;20203;-61
2021/07/01 02:16:07;;;;;;;0.60;0.60;;;11.80;99.90;10.80;96507.00;;;;5087217;28;20211;-60
2021/07/01 02:18:56;;;;;;;0.40;0.40;;;11.70;99.90;10.80;96509.00;;;;5087848;28;20782;-62
2021/07/01 02:21:45;;;;;;;2.00;0.60;;;11.60;99.90;10.90;96508.00;;;;5087128;28;20227;-62
2021/07/01 02:24:34;;;;;;;5.60;0.97;;;11.50;99.90;11.00;96506.00;;;;5087456;28;20206;-60
2021/07/01 02:27:23;;;;;;;0.90;0.60;;;11.50;99.90;11.10;96511.00;;;;5087541;28;20694;-61
2021/07/01 02:30:18;;;;;;;1.17;0.80;;;11.50;99.90;11.10;96505.00;;;;5085907;28;20226;-64
2021/07/01 02:33:06;;;;;;;0.60;0.60;;;11.50;99.90;10.80;96503.00;;;;5087700;28;20215;-62
2021/07/01 02:35:55;;;;;;;1.33;0.87;;;11.50;99.90;10.60;96498.00;;;;5086807;28;20229;-60
2021/07/01 02:38:44;;;;;;;2.50;0.63;;;11.40;99.90;10.80;96501.00;;;;5088304;28;20199;-62
2021/07/01 02:41:33;;;;;;;0.80;0.80;;;11.30;99.90;10.70;96477.00;;;;5085423;28;20254;-64
2021/07/01 02:44:22;;;;;;;0.73;0.73;;;11.30;99.90;10.50;96497.00;;;;5087644;28;20278;-61
2021/07/01 02:47:12;;;;;;;0.90;0.50;;;10.10;99.90;10.50;96504.00;;;;5086325;28;20225;-62
2021/07/01 02:50:01;;;;;;;1.53;0.57;;;11.20;99.90;10.60;96498.00;;;;5088740;28;20225;-62
2021/07/01 02:52:50;;;;;;;0.87;0.50;;;11.10;99.90;10.60;96496.00;;;;5086758;28;20304;-63
2021/07/01 02:55:39;;;;;;;1.07;0.80;;;11.10;99.90;10.80;96493.00;;;;5076032;28;20215;-60
2021/07/01 02:58:28;;;;;;;10.73;1.20;;;11.20;99.90;10.70;96507.00;;;;5087156;28;20196;-62
2021/07/01 03:01:18;;;;;;;1.10;0.90;;;11.20;99.90;10.70;96497.00;;;;5084998;28;20926;-61
2021/07/01 03:04:08;;;;;;;1.43;0.60;;;11.20;99.90;10.50;96491.00;;;;5087029;28;20199;-63
2021/07/01 03:06:57;;;;;;;2.47;0.70;;;11.20;99.90;10.60;96496.00;;;;5085424;28;20203;-62
2021/07/01 03:09:46;;;;;;;4.33;0.80;;;11.10;99.90;10.70;96491.00;;;;5073161;28;20223;-63
2021/07/01 03:12:35;;;;;;;0.97;0.87;;;11.20;99.90;10.80;96510.00;;;;5086226;28;20227;-61
2021/07/01 03:15:24;;;;;;;1.57;0.97;;;11.20;99.90;10.80;96505.00;;;;5086962;28;20221;-63
2021/07/01 03:18:13;;;;;;;2.10;0.87;;;11.20;99.90;10.70;96501.00;;;;5086033;28;20279;-61
2021/07/01 03:21:03;;;;;;;1.77;0.80;;;11.20;99.90;10.80;96495.00;;;;5085393;28;20686;-60
2021/07/01 03:23:52;;;;;;;2.03;0.70;;;11.20;99.90;10.80;96490.00;;;;5085696;28;20204;-61
2021/07/01 03:26:41;;;;;;;1.17;0.90;;;11.20;99.90;10.40;96497.00;;;;5086320;28;20229;-61
2021/07/01 03:29:30;;;;;;;1.47;0.70;;;11.20;99.90;10.30;96496.00;;;;5085975;28;20199;-61
2021/07/01 03:32:19;;;;;;;0.80;0.70;;;11.10;99.90;10.30;96498.00;;;;5085943;28;20234;-61
2021/07/01 03:35:09;;;;;;;2.30;0.90;;;11.00;99.90;10.00;96490.00;;;;5085573;28;20203;-61
2021/07/01 03:37:59;;;;;;;0.70;0.70;;;10.90;99.90;9.90;96491.00;;;;5086517;28;20580;-60
2021/07/01 03:40:48;;;;;;;0.70;0.67;;;10.80;99.90;10.10;96493.00;;;;5083932;28;20215;-62
2021/07/01 03:43:41;;;;;;;4.87;1.63;;;10.70;99.90;10.20;96492.00;;;;5085764;28;20199;-62
2021/07/01 03:46:30;;;;;;;1.60;0.70;;;10.70;99.90;10.30;96501.00;;;;5085589;28;20199;-63
2021/07/01 03:49:19;;;;;;;1.67;1.00;;;10.80;99.90;10.20;96491.00;;;;5085617;28;20195;-62
2021/07/01 03:52:09;;;;;;;0.90;0.70;;;10.80;99.90;10.50;96492.00;;;;5084211;28;20619;-63
2021/07/01 03:54:59;;;;;;;1.03;0.80;;;10.90;99.90;10.40;96495.00;;;;5086007;28;20199;-63
2021/07/01 03:57:48;;;;;;;0.70;0.70;;;10.90;99.90;10.40;96503.00;;;;5085475;28;20233;-63
2021/07/01 04:00:37;;;;;;;5.20;0.80;;;10.90;99.90;10.40;96513.00;;;;5083592;28;20227;-62
2021/07/01 04:03:26;;;;;;;1.77;0.63;;;10.90;99.90;10.40;96508.00;;;;5085079;28;20211;-63
2021/07/01 04:06:15;;;;;;;0.70;0.70;;;10.90;99.90;10.40;96524.00;;;;5080846;28;20733;-62
2021/07/01 04:09:06;;;;;;;1.13;0.93;;;10.90;99.90;10.60;96531.00;;;;5083693;28;20314;-63
2021/07/01 04:11:56;;;;;;;1.43;0.70;;;10.90;99.90;10.70;96533.00;;;;5076157;28;20227;-63
2021/07/01 04:14:45;;;;;;;1.10;0.80;;;11.00;99.90;10.80;96526.00;;;;5083023;28;20778;-63
2021/07/01 04:17:34;;;;;;;1.00;0.70;;;11.00;99.90;10.90;96529.00;;;;5084860;28;20203;-63
2021/07/01 04:20:23;;;;;;;0.70;0.70;;;11.20;99.90;10.90;96528.00;;;;5084052;28;20628;-62
2021/07/01 04:23:12;;;;;;;3.20;0.83;;;11.20;99.90;10.90;96535.00;;;;5084560;28;20207;-61
2021/07/01 04:26:01;;;;;;;0.90;0.70;;;11.30;99.90;11.00;96547.00;;;;5084375;28;20673;-62
2021/07/01 04:28:51;;;;;;;0.87;0.80;;;11.30;99.90;10.60;96533.00;;;;5084014;28;20206;-63
2021/07/01 04:31:40;;;;;;;7.33;0.77;;;11.30;99.90;10.70;96537.00;;;;5085428;28;20709;-61
2021/07/01 04:34:29;;;;;;;1.83;0.97;;;11.30;99.90;10.80;96543.00;;;;5085010;28;20214;-64
2021/07/01 04:37:18;;;;;;;0.57;0.50;;;11.30;99.90;10.80;96548.00;;;;5085429;28;20705;-64
2021/07/01 04:40:10;;;;;;;2.10;0.90;;;11.30;99.90;10.80;96540.00;;;;5083630;28;20254;-63
2021/07/01 04:42:58;;;;;;;2.87;0.80;;;11.30;99.90;10.90;96534.00;;;;5085245;28;20242;-60
2021/07/01 04:45:49;;;;;;;1.07;0.70;;;11.30;99.90;11.30;96550.00;;;;5084685;28;20211;-64
2021/07/01 04:48:38;;;;;;;1.30;0.97;;;11.50;99.90;11.60;96540.00;;;;5085375;28;20260;-62
2021/07/01 04:51:27;;;;;;;0.90;0.90;;;11.60;99.90;11.90;96537.00;;;;5090563;28;20223;-62
2021/07/01 04:54:16;;;;;;;3.07;0.80;;;11.90;99.90;12.20;96533.00;;;;5084192;28;20207;-62
2021/07/01 04:57:05;;;;;;;1.57;0.80;;;12.10;99.90;12.60;96539.00;;;;5084899;28;20571;-62
2021/07/01 04:59:54;;;;;;;1.97;1.37;;;12.30;99.90;12.90;96529.00;;;;5083485;28;20645;-62
2021/07/01 05:02:44;;;;;;;2.70;1.27;;;12.60;99.90;13.30;96543.00;;;;5086106;28;20215;-63
2021/07/01 05:05:33;;;;;;;2.67;0.90;;;12.90;99.90;13.40;96545.00;;;;5083894;28;20203;-63
2021/07/01 05:08:22;;;;;;;0.63;0.63;;;13.20;99.90;13.50;96536.00;;;;5077600;28;20200;-62
2021/07/01 05:11:11;;;;;;;1.20;1.00;;;13.40;99.90;13.90;96549.00;;;;5082201;28;20223;-63
2021/07/01 05:14:00;;;;;;;4.00;0.93;;;13.60;99.90;13.60;96552.00;;;;5085112;28;20203;-63
2021/07/01 05:16:49;;;;;;;3.13;1.00;;;13.80;99.90;13.50;96556.00;;;;5084787;28;20218;-63
2021/07/01 05:19:39;;;;;;;1.23;0.90;;;13.80;99.90;13.80;96546.00;;;;5083801;28;20211;-62
2021/07/01 05:22:28;;;;;;;3.43;0.80;;;13.90;99.90;13.90;96560.00;;;;5084678;28;20231;-62
2021/07/01 05:25:17;;;;;;;1.00;0.90;;;14.00;99.90;14.10;96557.00;;;;5084864;28;20203;-63
2021/07/01 05:28:11;;;;;;;2.87;1.00;;;14.10;99.90;14.40;96538.00;;;;5088348;28;20902;-62
2021/07/01 05:31:01;;;;;;;1.33;0.90;;;14.30;99.90;14.80;96547.00;;;;5089033;28;20259;-62
2021/07/01 05:33:51;;;;;;;2.23;0.80;;;14.50;99.90;15.00;96542.00;;;;5087643;28;20210;-63
2021/07/01 05:36:41;;;;;;;3.67;1.40;;;14.70;99.90;15.20;96548.00;;;;5089449;28;20701;-61
2021/07/01 05:39:30;;;;;;;2.23;1.20;;;15.00;99.90;15.50;96556.00;;;;5078819;28;20203;-61
2021/07/01 05:42:18;;;;;;;3.00;1.10;;;15.20;99.90;15.60;96555.00;;;;5081311;28;20229;-63
2021/07/01 05:45:08;;;;;;;1.13;0.93;;;15.40;99.90;15.60;96564.00;;;;5091180;28;20670;-61
2021/07/01 05:47:57;;;;;;;1.83;0.97;;;15.60;99.90;15.90;96567.00;;;;5081432;28;20207;-63
2021/07/01 05:50:50;;;;;;;3.40;1.03;;;15.70;99.90;15.90;96567.00;;;;5091551;28;20226;-63
2021/07/01 05:53:46;;;;;;;1.03;0.70;;;15.90;99.90;16.20;96566.00;;;;5088828;28;20819;-64
2021/07/01 05:56:37;;;;;;;2.30;0.80;;;16.00;99.90;16.50;96563.00;;;;5087985;28;20204;-62
2021/07/01 05:59:26;;;;;;;1.83;0.70;;;16.30;99.90;16.60;96577.00;;;;5088232;28;20744;-61
2021/07/01 06:02:15;;;;;;;0.80;0.50;;;16.50;99.90;16.90;96563.00;;;;5089323;28;20243;-61
2021/07/01 06:05:05;;;;;;;0.77;0.73;;;16.70;99.90;17.20;96566.00;;;;5084679;28;20196;-59
2021/07/01 06:07:58;;;;;;;3.00;0.40;;;16.90;99.90;17.60;96581.00;;;;5083173;28;20215;-61
2021/07/01 06:10:51;;;;;;;0.53;0.53;;;17.30;99.90;18.00;96576.00;;;;5100402;28;20191;-65
2021/07/01 06:13:44;;;;;;;0.83;0.60;;;17.50;99.90;18.00;96587.00;;;;5088082;28;20214;-63
2021/07/01 06:16:35;;;;;;;1.10;0.70;;;17.80;99.90;17.90;96572.00;;;;5088811;28;20202;-62
2021/07/01 06:19:24;;;;;;;0.63;0.63;;;17.90;99.90;18.00;96583.00;;;;5088095;28;20225;-62
2021/07/01 06:22:14;;;;;;;1.67;1.10;;;18.00;99.90;18.10;96580.00;;;;5086740;28;20234;-66
2021/07/01 06:25:03;;;;;;;5.67;0.80;;;18.10;99.90;18.20;96593.00;;;;5081700;28;20211;-63
2021/07/01 06:27:54;;;;;;;1.03;0.80;;;18.10;99.90;18.30;96597.00;;;;5082066;28;20309;-63
2021/07/01 06:30:45;;;;;;;1.33;0.77;;;18.30;99.90;18.40;96592.00;;;;5085101;28;20195;-63
2021/07/01 06:33:34;;;;;;;2.73;0.80;;;18.30;99.90;18.40;96605.00;;;;5085756;28;20203;-63
2021/07/01 06:36:28;;;;;;;0.40;0.33;;;18.40;99.90;18.40;96605.00;;;;5087347;28;20196;-64
2021/07/01 06:39:22;;;;;;;1.10;0.70;;;18.50;99.90;18.50;96615.00;;;;5081177;28;20215;-63
2021/07/01 06:42:12;;;;;;;1.37;0.80;;;18.50;99.90;18.50;96607.00;;;;5098439;28;20227;-63
2021/07/01 06:45:04;;;;;;;0.60;0.60;;;18.60;99.90;18.20;96619.00;;;;5082908;28;20218;-62
2021/07/01 06:47:55;;;;;;;1.27;0.70;;;18.50;99.90;18.30;96625.00;;;;5081240;28;20313;-63
2021/07/01 06:50:45;;;;;;;0.40;0.37;;;18.50;99.90;18.10;96623.00;;;;5083732;28;20199;-63
2021/07/01 06:53:37;;;;;;;0.57;0.40;;;18.40;99.90;18.10;96626.00;;;;5085386;28;20196;-63
2021/07/01 06:56:27;;;;;;;2.87;0.60;;;18.50;99.90;18.10;96612.00;;;;5086770;28;20207;-61
2021/07/01 06:59:16;;;;;;;0.40;0.40;;;18.30;99.90;18.50;96615.00;;;;5086011;28;20202;-63
2021/07/01 07:02:09;;;;;;;0.50;0.50;;;18.40;99.90;18.90;96613.00;;;;5085454;28;20337;-63
2021/07/01 07:04:58;;;;;;;1.27;0.50;;;18.60;99.90;18.90;96605.00;;;;5087293;28;20196;-62
2021/07/01 07:07:50;;;;;;;1.57;0.50;;;18.80;99.90;19.30;96605.00;;;;5083099;28;20204;-61
2021/07/01 07:10:41;;;;;;;1.90;0.50;;;19.10;99.90;20.00;96599.00;;;;5073519;28;20187;-63
2021/07/01 07:13:30;;;;;;;3.33;0.47;;;19.40;99.90;20.60;96597.00;;;;5095552;28;20206;-63
2021/07/01 07:16:19;;;;;;;0.37;0.20;;;19.80;99.90;20.80;96596.00;;;;5086532;28;20207;-62
2021/07/01 07:19:11;;;;;;;1.27;0.50;;;20.20;99.90;21.10;96578.00;;;;5084785;28;20256;-63
2021/07/01 07:22:03;;;;;;;0.93;0.30;;;20.60;99.90;21.50;96586.00;;;;5087304;28;20235;-63
2021/07/01 07:24:54;;;;;;;0.60;0.37;;;20.90;99.90;21.40;96592.00;;;;5086480;28;20207;-61
2021/07/01 07:27:55;;;;;;;0.83;0.40;;;21.20;94.60;21.60;96605.00;;;;5087740;28;20196;-63
2021/07/01 07:30:43;;;;;;;0.40;0.23;;;21.40;95.20;20.50;96597.00;;;;5086127;28;20199;-63
2021/07/01 07:33:33;;;;;;;0.40;0.20;;;21.40;91.30;21.10;96605.00;;;;5085428;28;20210;-62
2021/07/01 07:36:26;;;;;;;0.30;0.30;;;21.30;92.20;21.20;96605.00;;;;5084496;28;20333;-62
2021/07/01 07:39:14;;;;;;;0.27;0.20;;;21.40;92.50;21.30;96610.00;;;;5068153;28;20202;-62
2021/07/01 07:42:05;;;;;;;0.70;0.50;;;21.40;92.80;20.90;96602.00;;;;5075276;28;20223;-62
2021/07/01 07:44:53;;;;;;;0.80;0.40;;;21.30;91.00;21.10;96607.00;;;;5085567;28;20217;-62
2021/07/01 07:47:43;;;;;;;1.03;0.40;;;21.20;90.90;20.90;96595.00;;;;5068144;28;20702;-63
2021/07/01 07:50:31;;;;;;;0.37;0.30;;;21.20;91.30;21.30;96573.00;;;;5081653;28;20581;-60
2021/07/01 07:53:26;;;;;;;1.13;1.03;;;21.20;92.00;22.20;96574.00;;;;5080593;28;20203;-62
2021/07/01 07:56:23;;;;;;;0.40;0.40;;;21.50;93.00;22.60;96575.00;;;;5083896;28;20199;-62
2021/07/01 07:59:12;;;;;;;1.20;0.30;;;21.90;92.10;22.30;96575.00;;;;5083334;28;20593;-60
2021/07/01 08:02:05;;;;;;;0.30;0.23;;;22.20;90.10;22.40;96596.00;;;;5077598;28;20234;-59
2021/07/01 08:04:56;;;;;;;1.23;0.33;;;22.30;86.80;22.20;96607.00;;;;5085925;28;20279;-61
2021/07/01 08:07:46;;;;;;;0.60;0.20;;;22.30;87.20;21.70;96608.00;;;;5082526;28;20195;-61
2021/07/01 08:10:36;;;;;;;0.50;0.50;;;22.20;84.90;21.80;96610.00;;;;5078047;28;20203;-61
2021/07/01 08:13:27;;;;;;;0.97;0.87;;;22.10;85.90;22.00;96619.00;;;;5075657;28;20195;-61
2021/07/01 08:16:16;;;;;;;0.20;0.13;;;22.00;85.90;21.60;96616.00;;;;5072856;28;20875;-61
2021/07/01 08:19:05;;;;;;;0.30;0.20;;;22.00;83.40;21.40;96611.00;;;;5059670;28;20336;-62
2021/07/01 08:21:54;;;;;;;0.93;0.23;;;21.80;81.50;21.30;96622.00;;;;5061823;28;20235;-60
2021/07/01 08:24:43;;;;;;;1.33;0.20;;;21.80;80.10;21.10;96622.00;;;;5075411;28;20202;-62
2021/07/01 08:27:34;;;;;;;0.57;0.20;;;21.60;80.30;21.00;96630.00;;;;5084888;28;20387;-60
2021/07/01 08:30:26;;;;;;;0.20;0.20;;;21.50;81.10;21.10;96614.00;;;;5083746;28;20215;-60
2021/07/01 08:33:19;;;;;;;0.20;0.17;;;21.40;79.70;21.50;96627.00;;;;5084939;28;20198;-60
2021/07/01 08:36:14;;;;;;;0.20;0.10;;;21.40;80.60;21.40;96626.00;;;;5085592;28;20585;-61
2021/07/01 08:39:08;;;;;;;0.30;0.20;;;21.50;80.30;21.60;96628.00;;;;5085411;28;20203;-62
2021/07/01 08:41:58;;;;;;;0.20;0.20;;;21.50;81.20;21.80;96626.00;;;;5085259;28;20261;-60
2021/07/01 08:44:58;;;;;;;0.20;0.10;;;21.60;81.90;22.20;96622.00;;;;5084915;28;20270;-63
2021/07/01 08:47:50;;;;;;;0.30;0.20;;;21.80;81.60;22.20;96621.00;;;;5084647;28;20232;-61
2021/07/01 08:50:44;;;;;;;0.50;0.20;;;22.00;79.50;22.20;96625.00;;;;5084891;28;20222;-60
2021/07/01 08:54:22;;;;;;;0.50;0.20;;;22.10;77.40;22.40;96625.00;;;;5084605;28;20210;-60
2021/07/01 08:57:15;;;;;;;0.20;0.20;;;22.30;77.00;22.60;96631.00;;;;5084771;28;20195;-62
2021/07/01 09:00:10;;;;;;;0.20;0.20;;;22.40;78.60;22.50;96641.00;;;;5084155;28;20211;-62
2021/07/01 09:03:05;;;;;;;0.60;0.10;;;22.40;76.20;22.60;96626.00;;;;5078402;28;20222;-62
2021/07/01 09:05:56;;;;;;;0.97;0.20;;;22.50;75.30;22.70;96642.00;;;;5082822;28;20199;-62
2021/07/01 09:08:49;;;;;;;0.20;0.10;;;22.70;75.00;23.10;96628.00;;;;5081290;28;20207;-63
2021/07/01 09:11:40;;;;;;;0.20;0.20;;;22.80;74.70;23.30;96627.00;;;;5082484;28;20245;-64
2021/07/01 09:14:31;;;;;;;0.20;0.10;;;23.00;75.20;23.10;96625.00;;;;5085575;28;20203;-64
2021/07/01 09:17:26;;;;;;;0.30;0.10;;;23.10;73.80;22.80;96628.00;;;;5086255;28;20203;-64
2021/07/01 09:20:19;;;;;;;0.30;0.22;;;23.10;70.80;22.90;96620.00;;;;5085844;28;20413;-61
2021/07/01 09:23:12;;;;;;;0.30;0.20;;;23.10;72.50;22.80;96621.00;;;;5074648;28;20233;-63
2021/07/01 09:26:02;;;;;;;1.63;0.40;;;23.00;71.90;23.00;96624.00;;;;5088687;28;20199;-61
2021/07/01 09:28:54;;;;;;;0.30;0.20;;;23.00;72.70;23.00;96626.00;;;;5088495;28;20203;-61
2021/07/01 09:31:43;;;;;;;0.40;0.30;;;23.00;73.50;23.00;96625.00;;;;5077701;28;20223;-62
2021/07/01 09:34:35;;;;;;;1.10;0.20;;;23.00;73.70;22.50;96631.00;;;;5074958;28;20211;-63
2021/07/01 09:37:28;;;;;;;1.43;0.20;;;22.90;73.10;22.20;96633.00;;;;5088774;28;20195;-62
2021/07/01 09:40:19;;;;;;;0.63;0.40;;;22.80;71.70;22.20;96634.00;;;;5086160;28;20199;-63
2021/07/01 09:43:09;;;;;;;0.30;0.20;;;22.60;72.70;22.10;96628.00;;;;5088141;28;20237;-61
2021/07/01 09:46:02;;;;;;;0.30;0.13;;;22.50;73.30;22.10;96635.00;;;;5087879;28;20249;-61
2021/07/01 09:48:53;;;;;;;0.40;0.30;;;22.30;75.50;22.00;96632.00;;;;5087800;28;20195;-61
2021/07/01 09:51:48;;;;;;;2.10;0.10;;;22.20;74.80;21.80;96636.00;;;;5094746;28;20728;-62
2021/07/01 09:54:39;;;;;;;0.27;0.20;;;22.10;74.70;21.80;96634.00;;;;5077944;28;20210;-61
2021/07/01 09:57:31;;;;;;;0.53;0.30;;;22.10;74.80;21.70;96627.00;;;;5088752;28;20652;-62
2021/07/01 10:00:20;;;;;;;2.93;0.57;;;22.00;74.50;21.60;96624.00;;;;5087428;28;20195;-61
2021/07/01 10:03:11;;;;;;;0.20;0.10;;;22.00;74.10;21.80;96620.00;;;;5086422;28;20215;-60
2021/07/01 10:06:17;;;;;;;0.47;0.20;;;21.90;73.80;21.80;96627.00;;;;5083536;28;20210;-61
2021/07/01 10:09:07;;;;;;;1.80;0.40;;;22.00;74.00;22.00;96626.00;;;;5073418;28;20269;-62
2021/07/01 10:11:56;;;;;;;0.20;0.20;;;22.00;74.50;22.20;96629.00;;;;5075680;28;20227;-62
2021/07/01 10:14:45;;;;;;;0.93;0.30;;;22.10;75.70;22.20;96629.00;;;;5086879;28;20215;-61
2021/07/01 10:17:34;;;;;;;0.30;0.20;;;22.10;74.80;22.20;96637.00;;;;5088061;28;20201;-62
2021/07/01 10:20:34;;;;;;;0.40;0.20;;;22.20;75.90;22.20;96638.00;;;;5083327;28;20223;-60
2021/07/01 10:23:26;;;;;;;0.53;0.30;;;22.20;76.40;22.00;96633.00;;;;5083915;28;20736;-60
2021/07/01 10:26:20;;;;;;;0.20;0.20;;;22.20;76.40;21.70;96641.00;;;;5086354;28;20207;-60
2021/07/01 10:29:09;;;;;;;0.50;0.40;;;22.20;73.40;21.60;96627.00;;;;5089452;28;20229;-63
2021/07/01 10:31:59;;;;;;;0.30;0.27;;;22.00;72.90;21.60;96630.00;;;;5087233;28;20735;-59
2021/07/01 10:34:50;;;;;;;1.80;0.50;;;21.90;73.90;21.70;96630.00;;;;5087528;28;20191;-60
2021/07/01 10:37:41;;;;;;;0.47;0.20;;;21.90;74.10;21.80;96629.00;;;;5087413;28;20195;-62
2021/07/01 10:40:32;;;;;;;0.43;0.30;;;21.80;74.90;21.80;96631.00;;;;5085295;28;20196;-61
2021/07/01 10:43:39;;;;;;;1.80;0.30;;;21.80;75.30;21.70;96634.00;;;;5084780;28;20231;-60
2021/07/01 10:46:38;;;;;;;1.83;0.17;;;21.80;75.40;21.70;96632.00;;;;5086951;28;20199;-60
2021/07/01 10:49:34;;;;;;;0.40;0.13;;;21.80;75.30;21.80;96631.00;;;;5086897;28;20677;-62
2021/07/01 10:52:35;;;;;;;0.40;0.30;;;21.80;75.60;21.80;96641.00;;;;5081770;28;20704;-60
2021/07/01 10:55:25;;;;;;;0.20;0.10;;;21.80;75.60;21.70;96634.00;;;;5086377;28;20249;-60
2021/07/01 10:58:35;;;;;;;0.40;0.20;;;21.80;75.30;21.60;96629.00;;;;5078304;28;20285;-60
2021/07/01 11:01:42;;;;;;;0.20;0.20;;;21.80;74.70;20.80;96632.00;;;;5076560;28;20222;-62
2021/07/01 11:04:31;;;;;;;0.20;0.20;;;21.60;70.10;20.50;96637.00;;;;5086920;28;20253;-62
2021/07/01 11:07:20;;;;;;;0.20;0.10;;;21.30;70.10;20.50;96636.00;;;;5086203;28;20214;-62
2021/07/01 11:10:10;;;;;;;0.40;0.40;;;21.10;69.00;20.00;96635.00;;;;5075126;28;20218;-60
2021/07/01 11:13:08;;;;;;;0.20;0.10;;;20.70;66.00;19.80;96640.00;;;;5075327;28;20241;-62
2021/07/01 11:16:13;;;;;;;0.20;0.10;;;20.50;64.90;19.80;96646.00;;;;5084985;28;20214;-62
2021/07/01 11:19:02;;;;;;;1.57;0.20;;;20.20;65.50;19.60;96647.00;;;;5086950;28;20214;-63
2021/07/01 11:21:54;;;;;;;0.30;0.20;;;20.10;64.90;19.60;96649.00;;;;5080268;28;20216;-66
2021/07/01 11:24:45;;;;;;;0.20;0.10;;;19.90;65.50;19.50;96656.00;;;;5085324;28;20227;-63
2021/07/01 11:27:35;;;;;;;0.20;0.10;;;19.90;65.50;19.50;96670.00;;;;5087089;28;20214;-59
2021/07/01 11:30:27;;;;;;;0.70;0.13;;;19.80;66.40;19.70;96672.00;;;;5082549;28;20199;-62
2021/07/01 11:33:19;;;;;;;0.20;0.10;;;19.80;66.80;19.60;96667.00;;;;5083171;28;20701;-63
2021/07/01 11:36:14;;;;;;;0.20;0.13;;;19.80;67.50;19.50;96674.00;;;;5085402;28;20617;-64
2021/07/01 11:39:12;;;;;;;0.47;0.27;;;19.80;66.00;19.60;96658.00;;;;5082402;28;20203;-64
2021/07/01 11:42:03;;;;;;;0.20;0.10;;;19.80;66.10;19.70;96663.00;;;;5082348;28;20227;-64
2021/07/01 11:44:53;;;;;;;0.20;0.10;;;19.80;66.30;19.70;96653.00;;;;5074085;28;20363;-64
2021/07/01 11:47:44;;;;;;;0.20;0.10;;;19.90;66.30;19.90;96649.00;;;;5085232;28;20203;-65
2021/07/01 11:50:34;;;;;;;2.00;0.10;;;20.00;66.90;20.20;96646.00;;;;5094185;28;20195;-63
2021/07/01 11:53:25;;;;;;;0.20;0.10;;;20.10;66.00;20.50;96647.00;;;;5085583;28;21133;-63
2021/07/01 11:56:15;;;;;;;0.20;0.10;;;20.20;66.70;20.30;96646.00;;;;5085458;28;20216;-61
2021/07/01 11:59:04;;;;;;;9.83;0.30;;;20.40;68.70;20.50;96647.00;;;;5085241;28;20207;-64
2021/07/01 12:01:53;;;;;;;0.40;0.20;;;20.50;68.10;20.60;96640.00;;;;5086133;28;20280;-64
2021/07/01 12:04:43;;;;;;;0.57;0.40;;;20.50;70.50;20.90;96647.00;;;;5075771;28;20253;-65
2021/07/01 12:07:35;;;;;;;2.73;0.50;;;20.70;74.90;20.70;96637.00;;;;5086443;28;20199;-62
2021/07/01 12:10:27;;;;;;;0.30;0.20;;;20.80;82.90;20.00;96643.00;;;;5076325;28;20776;-62
2021/07/01 12:13:43;;;;;;;0.90;0.50;;;20.70;80.90;19.50;96643.00;;;;5085706;28;20678;-65
2021/07/01 12:16:41;;;;;;;0.30;0.30;;;20.50;82.90;19.90;96647.00;;;;5083877;28;20223;-64
2021/07/01 12:20:03;;;;;;;0.50;0.30;;;20.30;83.30;19.50;96632.00;;;;5087959;28;20288;-64
2021/07/01 12:22:54;;;;;;;0.73;0.27;;;20.20;85.10;19.20;96629.00;;;;5081069;28;20407;-65
2021/07/01 12:25:48;;;;;;;0.57;0.40;;;19.90;87.30;19.20;96631.00;;;;5085361;28;20207;-65
2021/07/01 12:28:40;;;;;;;0.50;0.40;;;19.70;90.30;19.30;96620.00;;;;5085781;28;20575;-64
2021/07/01 12:31:30;;;;;;;0.50;0.50;;;19.60;90.50;19.50;96632.00;;;;5084156;28;20283;-61
2021/07/01 12:34:21;;;;;;;1.80;0.40;;;19.70;90.70;20.10;96629.00;;;;5085261;28;20267;-63
2021/07/01 12:37:10;;;;;;;1.13;0.63;;;19.80;91.60;20.40;96636.00;;;;5076832;28;20203;-61
2021/07/01 12:40:00;;;;;;;0.67;0.50;;;20.00;93.40;20.70;96630.00;;;;5080813;28;20203;-62